Time;durP1;ratioP1;P1;durP2;ratioP2;P2;SDS_P1;SDS_P2;PMS_P1;PMS_P2;Temp;Humidity;BMP_temperature;BMP_pressure;BME280_temperature;BME280_humidity;BME280_pressure;Samples;Min_cycle;Max_cycle;Signal;HPM_P1;HPM_P2
2021/12/22 00:02:29;;;;;;;53.83;28.70;;;;;;;-4.19;100.00;102207.75;4996436;28;20048;-72
2021/12/22 00:04:56;;;;;;;59.33;27.30;;;;;;;-4.15;100.00;102218.84;4989946;28;20034;-73
2021/12/22 00:07:22;;;;;;;60.37;28.83;;;;;;;-4.16;100.00;102217.16;4993032;28;20041;-72
2021/12/22 00:09:47;;;;;;;51.07;26.77;;;;;;;-4.15;100.00;102221.47;4990498;28;20039;-71
2021/12/22 00:12:15;;;;;;;53.30;26.97;;;;;;;-4.15;100.00;102222.31;4990939;28;20112;-71
2021/12/22 00:14:41;;;;;;;51.47;26.67;;;;;;;-4.18;100.00;102217.28;4994096;28;20049;-71
2021/12/22 00:17:06;;;;;;;49.40;26.80;;;;;;;-4.17;100.00;102225.97;5008001;28;20109;-71
2021/12/22 00:19:34;;;;;;;54.00;27.30;;;;;;;-4.20;100.00;102231.44;4993534;28;20041;-72
2021/12/22 00:22:00;;;;;;;59.13;27.87;;;;;;;-4.19;100.00;102227.88;4993702;28;20781;-73
2021/12/22 00:24:25;;;;;;;55.30;26.67;;;;;;;-4.20;100.00;102220.97;4994737;28;20675;-71
2021/12/22 00:26:53;;;;;;;54.80;26.77;;;;;;;-4.19;100.00;102231.31;4992760;28;20042;-72
2021/12/22 00:29:23;;;;;;;49.60;25.93;;;;;;;-4.18;100.00;102229.53;4993654;28;20036;-71
2021/12/22 00:34:51;;;;;;;50.97;25.90;;;;;;;-4.33;100.00;102221.88;4989915;28;22491;-72
2021/12/22 00:37:22;;;;;;;55.03;26.90;;;;;;;-4.41;100.00;102213.75;4967977;28;20041;-73
2021/12/22 00:39:47;;;;;;;58.00;28.03;;;;;;;-4.32;100.00;102223.56;4993194;28;20065;-73
2021/12/22 00:42:14;;;;;;;53.37;28.47;;;;;;;-4.37;100.00;102220.44;5003519;28;20726;-73
2021/12/22 00:44:41;;;;;;;53.87;27.47;;;;;;;-4.43;100.00;102213.03;4996617;28;20037;-73
2021/12/22 00:47:07;;;;;;;57.53;27.77;;;;;;;-4.48;100.00;102216.94;4993341;28;20037;-73
2021/12/22 00:49:33;;;;;;;52.27;25.93;;;;;;;-4.51;100.00;102207.53;4992917;28;20075;-73
2021/12/22 00:51:58;;;;;;;53.67;26.50;;;;;;;-4.51;100.00;102207.53;5008311;28;20569;-73
2021/12/22 00:54:24;;;;;;;48.50;25.80;;;;;;;-4.54;100.00;102219.06;4993783;28;20592;-73
2021/12/22 00:56:54;;;;;;;54.33;27.53;;;;;;;-4.67;100.00;102192.09;5008214;28;20034;-73
2021/12/22 00:59:20;;;;;;;53.63;27.20;;;;;;;-4.48;100.00;102206.44;4992606;28;20045;-73
2021/12/22 01:01:45;;;;;;;53.00;26.77;;;;;;;-4.45;100.00;102201.84;4993380;28;20145;-73
2021/12/22 01:04:11;;;;;;;57.67;27.17;;;;;;;-4.40;100.00;102215.44;4993804;28;20034;-73
2021/12/22 01:06:40;;;;;;;50.30;26.27;;;;;;;-4.40;100.00;102209.34;4993028;28;20032;-73
2021/12/22 01:09:05;;;;;;;53.03;27.93;;;;;;;-4.35;100.00;102222.94;4992972;28;20044;-72
2021/12/22 01:11:33;;;;;;;53.13;28.00;;;;;;;-4.24;100.00;102209.88;4991863;28;20052;-72
2021/12/22 01:13:58;;;;;;;55.40;29.83;;;;;;;-4.31;100.00;102193.78;5001881;28;20473;-73
2021/12/22 01:16:26;;;;;;;59.47;29.60;;;;;;;-4.26;100.00;102212.59;4993363;28;20042;-73
2021/12/22 01:18:55;;;;;;;61.03;30.90;;;;;;;-4.37;100.00;102183.75;4992178;28;20087;-73
2021/12/22 01:21:37;;;;;;;62.40;31.27;;;;;;;-4.22;100.00;102212.41;4993425;28;20485;-73
2021/12/22 01:24:15;;;;;;;64.70;32.60;;;;;;;-4.20;100.00;102216.56;5006769;28;20045;-73
2021/12/22 01:26:45;;;;;;;67.93;33.97;;;;;;;-4.10;100.00;102216.69;4993446;28;20040;-73
2021/12/22 01:29:15;;;;;;;67.43;33.90;;;;;;;-4.09;100.00;102213.13;4985790;28;21767;-73
2021/12/22 01:31:42;;;;;;;61.60;31.67;;;;;;;-4.11;100.00;102210.63;4992832;28;20185;-73
2021/12/22 01:34:08;;;;;;;67.83;33.80;;;;;;;-4.12;100.00;102208.13;4992328;28;20059;-73
2021/12/22 01:36:34;;;;;;;67.90;33.33;;;;;;;-4.16;100.00;102210.13;4993603;28;20041;-72
2021/12/22 01:39:03;;;;;;;65.33;32.80;;;;;;;-4.19;100.00;102206.91;4992165;28;20795;-72
2021/12/22 01:41:28;;;;;;;63.43;31.87;;;;;;;-4.22;100.00;102213.22;4997136;28;20125;-72
2021/12/22 01:43:54;;;;;;;72.10;33.33;;;;;;;-4.26;100.00;102219.63;4992465;28;20452;-72
2021/12/22 01:49:10;;;;;;;67.13;31.10;;;;;;;-4.25;100.00;102216.88;5006966;28;20647;-71
2021/12/22 01:51:54;;;;;;;62.73;31.67;;;;;;;-4.22;100.00;102215.00;4981150;28;20044;-73
2021/12/22 01:54:19;;;;;;;66.37;31.77;;;;;;;-4.23;100.00;102222.03;5006358;28;20029;-73
2021/12/22 01:56:50;;;;;;;55.97;30.43;;;;;;;-4.29;100.00;102218.09;4991811;28;20112;-73
2021/12/22 01:59:20;;;;;;;;;;;;;;;-4.29;100.00;102228.56;5007480;28;20126;-73
2021/12/22 02:01:48;;;;;;;61.60;30.60;;;;;;;-4.32;100.00;102228.81;4984965;28;20310;-74
2021/12/22 02:04:14;;;;;;;55.97;30.20;;;;;;;-4.34;100.00;102237.72;4990028;28;20079;-74
2021/12/22 02:06:45;;;;;;;57.73;29.17;;;;;;;-4.41;100.00;102226.00;4990057;28;20129;-72
2021/12/22 02:09:15;;;;;;;62.80;32.40;;;;;;;-4.45;100.00;102227.19;5006303;28;20053;-73
2021/12/22 02:11:42;;;;;;;71.03;32.53;;;;;;;-4.52;100.00;102235.50;4991712;28;20033;-73
2021/12/22 02:14:10;;;;;;;55.60;30.77;;;;;;;-4.56;100.00;102234.06;4991545;28;21012;-72
2021/12/22 02:16:39;;;;;;;59.93;31.27;;;;;;;-4.60;100.00;102222.13;4992424;28;20038;-72
2021/12/22 02:19:07;;;;;;;66.17;31.87;;;;;;;-4.78;100.00;102199.06;4996621;28;20144;-73
2021/12/22 02:21:40;;;;;;;61.63;31.27;;;;;;;-4.70;100.00;102222.91;4997337;28;20149;-72
2021/12/22 02:24:06;;;;;;;64.78;31.05;;;;;;;-4.70;100.00;102228.16;4991541;28;20552;-71
2021/12/22 02:29:05;;;;;;;61.70;32.40;;;;;;;-4.77;100.00;102222.53;4992525;28;20049;-73
2021/12/22 02:31:39;;;;;;;61.70;33.37;;;;;;;-4.81;100.00;102218.44;4991706;28;20643;-73
2021/12/22 02:34:14;;;;;;;68.77;35.63;;;;;;;-4.84;100.00;102216.88;4991280;28;20104;-74
2021/12/22 02:36:42;;;;;;;68.15;34.47;;;;;;;-4.86;100.00;102208.31;4994296;28;20039;-74
2021/12/22 02:39:08;;;;;;;72.60;36.53;;;;;;;-4.81;100.00;102211.47;4991002;28;20416;-73
2021/12/22 02:41:39;;;;;;;70.13;36.10;;;;;;;-4.90;100.00;102211.25;4990894;28;20199;-73
2021/12/22 02:44:10;;;;;;;66.15;34.05;;;;;;;-4.90;100.00;102212.09;4991697;28;20050;-73
2021/12/22 02:46:37;;;;;;;68.30;33.37;;;;;;;-4.92;100.00;102218.41;4991641;28;20129;-73
2021/12/22 02:49:08;;;;;;;63.20;32.90;;;;;;;-4.96;100.00;102227.44;4991676;28;20587;-73
2021/12/22 02:51:34;;;;;;;62.80;30.70;;;;;;;-5.12;100.00;102204.13;4995913;28;20119;-73
2021/12/22 02:56:37;;;;;;;60.47;30.30;;;;;;;-5.07;100.00;102209.84;5000176;28;20062;-73
2021/12/22 03:04:18;;;;;;;57.40;29.17;;;;;;;-5.19;100.00;102208.13;4990576;28;20069;-73
2021/12/22 03:07:10;;;;;;;64.60;30.37;;;;;;;-5.28;100.00;102200.94;5006054;28;20541;-73
2021/12/22 03:09:33;;;;;;;57.30;29.20;;;;;;;-5.27;100.00;102205.22;4990473;28;20061;-73
2021/12/22 03:12:00;;;;;;;57.80;30.50;;;;;;;-5.30;100.00;102208.03;4990647;28;20029;-73
2021/12/22 03:14:31;;;;;;;60.53;29.77;;;;;;;-5.30;100.00;102205.41;4991312;28;20064;-73
2021/12/22 03:16:57;;;;;;;68.43;30.73;;;;;;;-5.32;100.00;102205.53;4990136;28;20059;-73
2021/12/22 03:19:28;;;;;;;58.43;28.93;;;;;;;-5.34;100.00;102202.19;4991095;28;20091;-74
2021/12/22 03:22:00;;;;;;;71.23;32.57;;;;;;;-5.26;100.00;102199.03;4990271;28;20046;-73
2021/12/22 03:24:27;;;;;;;66.32;31.88;;;;;;;-5.22;100.00;102197.84;4981618;28;20033;-73
2021/12/22 03:26:59;;;;;;;66.17;31.37;;;;;;;-5.22;100.00;102192.63;4984929;28;20040;-73
2021/12/22 03:29:25;;;;;;;71.10;33.90;;;;;;;-5.24;100.00;102186.69;5005013;28;20092;-72
2021/12/22 03:31:53;;;;;;;65.77;32.13;;;;;;;-5.24;100.00;102187.50;4991639;28;20166;-73
2021/12/22 03:34:21;;;;;;;72.30;31.77;;;;;;;-5.26;100.00;102184.19;4989952;28;20048;-72
2021/12/22 03:36:49;;;;;;;80.10;36.87;;;;;;;-5.24;100.00;102181.44;4990666;28;20030;-74
2021/12/22 03:39:17;;;;;;;74.63;33.60;;;;;;;-5.19;100.00;102184.56;5004979;28;20639;-72
2021/12/22 03:41:45;;;;;;;73.40;34.73;;;;;;;-5.15;100.00;102186.03;5005297;28;20029;-74
2021/12/22 03:44:13;;;;;;;72.90;36.07;;;;;;;-5.06;100.00;102185.34;4998364;28;20501;-74
2021/12/22 03:46:39;;;;;;;86.73;37.40;;;;;;;-5.05;100.00;102166.13;4994015;28;20080;-73
2021/12/22 03:49:11;;;;;;;97.40;40.83;;;;;;;-4.89;100.00;102160.56;4993439;28;20311;-73
2021/12/22 03:51:37;;;;;;;89.63;40.30;;;;;;;-4.88;100.00;102157.03;4994242;28;20074;-73
2021/12/22 03:54:04;;;;;;;93.30;41.30;;;;;;;-4.72;100.00;102169.84;5008413;28;20038;-73
2021/12/22 03:56:30;;;;;;;97.53;44.13;;;;;;;-4.57;100.00;102168.69;4994637;28;20285;-73
2021/12/22 03:58:55;;;;;;;95.93;43.40;;;;;;;-4.31;100.00;102170.22;5000007;28;20091;-72
2021/12/22 04:01:23;;;;;;;94.80;41.87;;;;;;;-4.30;100.00;102173.66;5008228;28;20306;-72
2021/12/22 04:03:57;;;;;;;84.07;39.80;;;;;;;-4.34;100.00;102174.81;5002368;28;20117;-73
2021/12/22 04:06:22;;;;;;;;;;;;;;;-4.25;100.00;102164.47;4994916;28;20041;-74
2021/12/22 04:08:48;;;;;;;88.30;37.03;;;;;;;-4.03;100.00;102168.09;4994317;28;20796;-74
2021/12/22 04:11:16;;;;;;;79.00;36.97;;;;;;;-3.85;100.00;102147.50;4993811;28;20540;-74
2021/12/22 04:13:44;;;;;;;82.90;36.53;;;;;;;-3.74;100.00;102171.94;4998137;28;20302;-73
2021/12/22 04:16:09;;;;;;;81.77;36.93;;;;;;;-3.70;100.00;102167.28;4994065;28;20203;-73
2021/12/22 04:18:35;;;;;;;78.80;38.23;;;;;;;-3.73;100.00;102163.13;4980844;28;20026;-73
2021/12/22 04:21:00;;;;;;;87.27;40.27;;;;;;;-3.67;100.00;102151.31;4993350;28;20458;-73
2021/12/22 04:23:26;;;;;;;87.07;41.47;;;;;;;-3.56;100.00;102160.97;4997736;28;20037;-72
2021/12/22 04:25:51;;;;;;;79.07;39.43;;;;;;;-3.45;100.00;102151.28;4994348;28;20127;-72
2021/12/22 04:28:19;;;;;;;81.83;38.70;;;;;;;-3.36;100.00;102156.75;4991750;28;20038;-73
2021/12/22 04:30:48;;;;;;;84.23;38.70;;;;;;;-3.39;100.00;102142.09;4992966;28;20541;-73
2021/12/22 04:33:15;;;;;;;77.80;37.47;;;;;;;-3.40;100.00;102140.44;4992186;28;20042;-73
2021/12/22 04:35:41;;;;;;;72.27;34.83;;;;;;;-3.45;100.00;102135.53;5008528;28;20496;-73
2021/12/22 04:38:07;;;;;;;76.37;37.57;;;;;;;-3.46;100.00;102128.63;5001950;28;20088;-72
2021/12/22 04:40:32;;;;;;;81.80;35.93;;;;;;;-3.46;100.00;102127.81;4992713;28;20025;-73
2021/12/22 04:43:00;;;;;;;75.93;36.53;;;;;;;-3.44;100.00;102131.97;4994330;28;20647;-72
2021/12/22 04:45:26;;;;;;;82.43;36.80;;;;;;;-3.41;100.00;102130.91;4994018;28;20444;-72
2021/12/22 04:47:51;;;;;;;80.27;36.83;;;;;;;-3.31;100.00;102137.09;4993322;28;20033;-72
2021/12/22 04:50:21;;;;;;;79.87;35.80;;;;;;;-3.39;100.00;102129.00;4998248;28;20040;-73
2021/12/22 04:53:03;;;;;;;74.07;34.70;;;;;;;-3.40;100.00;102136.03;4989894;28;20047;-72
2021/12/22 04:55:29;;;;;;;76.38;34.17;;;;;;;-3.50;100.00;102126.41;4993463;28;20052;-73
2021/12/22 04:57:55;;;;;;;67.93;33.33;;;;;;;-3.45;100.00;102132.09;4991284;28;20484;-73
2021/12/22 05:00:21;;;;;;;71.93;33.13;;;;;;;-3.35;100.00;102127.78;4998485;28;20033;-72
2021/12/22 05:02:48;;;;;;;76.30;34.20;;;;;;;-3.18;100.00;102126.41;4980848;28;20026;-72
2021/12/22 05:05:14;;;;;;;79.77;36.17;;;;;;;-3.18;100.00;102116.78;5007239;28;20037;-72
2021/12/22 05:07:39;;;;;;;74.53;35.83;;;;;;;-3.01;100.00;102114.56;4992442;28;20124;-72
2021/12/22 05:10:08;;;;;;;72.23;35.73;;;;;;;-3.06;100.00;102103.59;4981281;28;20025;-73
2021/12/22 05:12:35;;;;;;;69.87;35.07;;;;;;;-3.09;100.00;102104.69;4993280;28;20087;-72
2021/12/22 05:15:02;;;;;;;68.43;34.23;;;;;;;-3.17;100.00;102101.84;4992323;28;20112;-72
2021/12/22 05:20:09;;;;;;;69.67;34.83;;;;;;;-3.12;100.00;102116.25;4991756;28;20084;-73
2021/12/22 05:22:35;;;;;;;75.37;35.40;;;;;;;-3.06;100.00;102127.22;4992792;28;21879;-72
2021/12/22 05:25:02;;;;;;;73.60;34.53;;;;;;;-3.12;100.00;102121.50;4991821;28;20134;-72
2021/12/22 05:27:29;;;;;;;64.40;33.00;;;;;;;-3.15;100.00;102124.38;4990705;28;20033;-73
2021/12/22 05:29:56;;;;;;;68.70;33.07;;;;;;;-3.13;100.00;102119.84;4992155;28;20306;-72
2021/12/22 05:32:26;;;;;;;71.07;35.33;;;;;;;-3.14;100.00;102130.47;4995873;28;20808;-72
2021/12/22 05:34:54;;;;;;;63.80;31.30;;;;;;;-3.16;100.00;102116.66;4992290;28;20204;-73
2021/12/22 05:37:21;;;;;;;65.97;32.87;;;;;;;-3.16;100.00;102104.34;4991937;28;20045;-72
2021/12/22 05:39:47;;;;;;;66.57;35.27;;;;;;;-3.12;100.00;102107.56;4990012;28;20042;-72
2021/12/22 05:42:13;;;;;;;63.53;32.97;;;;;;;-3.19;100.00;102109.84;4991649;28;20069;-72
2021/12/22 05:44:39;;;;;;;64.80;32.77;;;;;;;-3.22;100.00;102114.50;4997361;28;20118;-72
2021/12/22 05:47:04;;;;;;;70.83;34.27;;;;;;;-3.25;100.00;102109.53;4996945;28;20044;-72
2021/12/22 05:49:30;;;;;;;68.37;34.60;;;;;;;-3.28;100.00;102105.34;4991720;28;20475;-72
2021/12/22 05:51:55;;;;;;;68.43;34.73;;;;;;;-3.29;100.00;102108.09;4991543;28;20113;-72
2021/12/22 05:54:21;;;;;;;70.57;35.40;;;;;;;-3.32;100.00;102109.16;4996520;28;20407;-72
2021/12/22 05:56:47;;;;;;;64.33;34.03;;;;;;;-3.33;100.00;102102.25;4991970;28;20033;-73
2021/12/22 05:59:12;;;;;;;71.00;35.43;;;;;;;-3.40;100.00;102106.34;4990686;28;20033;-73
2021/12/22 06:01:40;;;;;;;74.93;37.50;;;;;;;-3.41;100.00;102109.91;4998553;28;20708;-72
2021/12/22 06:04:08;;;;;;;70.00;36.33;;;;;;;-3.44;100.00;102110.97;4991743;28;20361;-72
2021/12/22 06:06:36;;;;;;;66.03;35.47;;;;;;;-3.49;100.00;102107.06;4991959;28;20038;-72
2021/12/22 06:09:01;;;;;;;69.87;35.47;;;;;;;-3.61;100.00;102105.41;4991102;28;20030;-72
2021/12/22 06:11:29;;;;;;;76.83;38.13;;;;;;;-3.72;100.00;102109.72;4996092;28;20040;-72
2021/12/22 06:13:55;;;;;;;74.50;37.83;;;;;;;-3.71;100.00;102102.69;4991805;28;20472;-72
2021/12/22 06:16:21;;;;;;;78.20;38.27;;;;;;;-3.78;100.00;102111.97;4991488;28;20449;-72
2021/12/22 06:18:51;;;;;;;94.77;42.90;;;;;;;-3.83;100.00;102103.63;5006542;28;20073;-72
2021/12/22 06:21:19;;;;;;;92.47;44.37;;;;;;;-3.86;100.00;102096.84;4991133;28;20095;-72
2021/12/22 06:23:45;;;;;;;91.60;42.93;;;;;;;-3.90;100.00;102105.94;4991852;28;20057;-72
2021/12/22 06:26:10;;;;;;;92.87;43.97;;;;;;;-4.03;100.00;102097.34;4990939;28;20046;-70
2021/12/22 06:28:38;;;;;;;98.03;45.67;;;;;;;-4.01;100.00;102104.13;4990189;28;20537;-71
2021/12/22 06:31:04;;;;;;;92.10;43.57;;;;;;;-3.96;100.00;102098.53;4992331;28;20075;-71
2021/12/22 06:33:31;;;;;;;93.53;41.33;;;;;;;-3.90;100.00;102098.06;4990097;28;20049;-70
2021/12/22 06:35:59;;;;;;;83.43;39.93;;;;;;;-3.97;100.00;102081.13;4994590;28;20040;-71
2021/12/22 06:38:25;;;;;;;78.80;38.87;;;;;;;-3.84;100.00;102089.69;4996491;28;20037;-70
2021/12/22 06:40:51;;;;;;;83.37;38.50;;;;;;;-3.88;100.00;102087.44;4989223;28;20087;-70
2021/12/22 06:43:19;;;;;;;83.20;39.10;;;;;;;-3.80;100.00;102091.13;4990269;28;20155;-71
2021/12/22 06:45:46;;;;;;;88.10;40.37;;;;;;;-3.83;100.00;102083.50;5005712;28;20048;-71
2021/12/22 06:48:14;;;;;;;88.63;40.70;;;;;;;-3.94;100.00;102075.63;4982576;28;20048;-71
2021/12/22 06:50:39;;;;;;;82.77;39.80;;;;;;;-3.85;100.00;102085.41;4989287;28;20125;-71
2021/12/22 06:53:08;;;;;;;87.97;41.90;;;;;;;-3.90;100.00;102090.19;5005891;28;20045;-71
2021/12/22 06:55:36;;;;;;;93.30;44.60;;;;;;;-4.04;100.00;102064.22;4990720;28;20515;-71
2021/12/22 06:58:02;;;;;;;92.20;43.20;;;;;;;-3.91;100.00;102085.91;4995824;28;20225;-71
2021/12/22 07:00:28;;;;;;;85.30;41.00;;;;;;;-3.86;100.00;102080.28;4991172;28;20116;-71
2021/12/22 07:02:55;;;;;;;76.37;38.40;;;;;;;-3.79;100.00;102081.47;4990303;28;20102;-72
2021/12/22 07:05:21;;;;;;;84.77;40.17;;;;;;;-3.75;100.00;102082.88;4990742;28;20144;-71
2021/12/22 07:07:47;;;;;;;89.17;41.90;;;;;;;-3.67;100.00;102090.97;4989406;28;20164;-71
2021/12/22 07:10:17;;;;;;;86.87;44.23;;;;;;;-3.70;100.00;102073.69;4990607;28;20111;-72
2021/12/22 07:12:48;;;;;;;86.53;43.07;;;;;;;-3.58;100.00;102086.81;5004850;28;20045;-71
2021/12/22 07:15:14;;;;;;;88.53;43.50;;;;;;;-3.56;100.00;102087.53;4994760;28;20697;-71
2021/12/22 07:17:42;;;;;;;85.53;42.17;;;;;;;-3.55;100.00;102084.78;4977967;28;20064;-71
2021/12/22 07:20:08;;;;;;;86.47;40.80;;;;;;;-3.63;100.00;102074.06;4990602;28;20091;-71
2021/12/22 07:22:34;;;;;;;86.33;42.10;;;;;;;-3.50;100.00;102073.94;5000879;28;20053;-71
2021/12/22 07:25:00;;;;;;;91.70;44.07;;;;;;;-3.44;100.00;102069.00;5012473;28;20151;-71
2021/12/22 07:27:26;;;;;;;83.20;41.03;;;;;;;-3.41;100.00;102065.31;4986945;28;20167;-70
2021/12/22 07:29:51;;;;;;;84.27;41.13;;;;;;;-3.43;100.00;102069.81;4998447;28;20042;-71
2021/12/22 07:32:19;;;;;;;90.73;44.87;;;;;;;-3.44;100.00;102068.16;4997801;28;20096;-72
2021/12/22 07:34:56;;;;;;;90.53;43.37;;;;;;;-3.45;100.00;102072.56;4995648;28;21891;-69
2021/12/22 07:37:27;;;;;;;89.20;43.90;;;;;;;-3.46;100.00;102067.47;4985443;28;20042;-71
2021/12/22 07:39:55;;;;;;;96.07;47.03;;;;;;;-3.59;100.00;102048.41;4996390;28;20044;-71
2021/12/22 07:42:21;;;;;;;97.07;47.33;;;;;;;-3.50;100.00;102073.94;4997162;28;20025;-70
2021/12/22 07:44:48;;;;;;;95.67;47.80;;;;;;;-3.53;100.00;102074.16;4996951;28;20176;-70
2021/12/22 07:47:14;;;;;;;91.83;46.43;;;;;;;-3.54;100.00;102077.72;4996375;28;20029;-70
2021/12/22 07:49:40;;;;;;;88.03;45.13;;;;;;;-3.55;100.00;102065.56;5012015;28;20110;-70
2021/12/22 07:52:06;;;;;;;89.40;44.17;;;;;;;-3.52;100.00;102070.56;4995439;28;20029;-71
2021/12/22 07:54:31;;;;;;;86.80;46.33;;;;;;;-3.52;100.00;102067.94;4998362;28;20038;-70
2021/12/22 07:56:57;;;;;;;90.93;44.50;;;;;;;-3.50;100.00;102079.16;4997096;28;20039;-70
2021/12/22 07:59:22;;;;;;;88.03;42.63;;;;;;;-3.51;100.00;102078.31;4996632;28;20048;-72
2021/12/22 08:01:48;;;;;;;91.70;43.30;;;;;;;-3.58;100.00;102076.31;5005775;28;20026;-72
2021/12/22 08:04:16;;;;;;;85.33;42.40;;;;;;;-3.60;100.00;102075.59;5005476;28;20375;-71
2021/12/22 08:06:41;;;;;;;77.27;39.87;;;;;;;-3.61;100.00;102066.88;4996912;28;20034;-71
2021/12/22 08:09:08;;;;;;;78.83;39.07;;;;;;;-3.57;100.00;102070.13;5005202;28;20046;-71
2021/12/22 08:11:33;;;;;;;76.97;39.53;;;;;;;-3.60;100.00;102072.97;4995180;28;20465;-71
2021/12/22 08:13:59;;;;;;;81.87;41.97;;;;;;;-3.57;100.00;102078.00;4997125;28;20038;-71
2021/12/22 08:16:27;;;;;;;85.73;43.40;;;;;;;-3.55;100.00;102062.97;4996975;28;20042;-71
2021/12/22 08:18:52;;;;;;;86.03;41.30;;;;;;;-3.48;100.00;102072.00;4995382;28;20119;-71
2021/12/22 08:21:18;;;;;;;90.13;41.10;;;;;;;-3.48;100.00;102072.00;4996453;28;20136;-71
2021/12/22 08:23:45;;;;;;;90.73;41.00;;;;;;;-3.41;100.00;102070.56;4999685;28;20311;-70
2021/12/22 08:26:13;;;;;;;79.67;39.10;;;;;;;-3.37;100.00;102066.72;4995679;28;20077;-72
2021/12/22 08:28:39;;;;;;;80.73;39.43;;;;;;;-3.35;100.00;102070.03;4996288;28;20034;-71
2021/12/22 08:31:07;;;;;;;85.67;40.10;;;;;;;-3.36;100.00;102068.38;4996711;28;20119;-71
2021/12/22 08:33:43;;;;;;;83.63;40.07;;;;;;;-3.32;100.00;102071.59;4997158;28;20038;-71
2021/12/22 08:38:55;;;;;;;82.13;39.63;;;;;;;-3.32;100.00;102068.97;4993559;28;20029;-71
2021/12/22 08:41:32;;;;;;;87.27;42.33;;;;;;;-3.26;100.00;102076.34;4994517;28;20042;-71
2021/12/22 08:44:01;;;;;;;81.43;40.87;;;;;;;-3.22;100.00;102073.34;5002498;28;20026;-70
2021/12/22 08:46:27;;;;;;;86.30;41.60;;;;;;;-3.20;100.00;102076.66;4992134;28;20033;-71
2021/12/22 08:48:54;;;;;;;80.67;40.23;;;;;;;-3.17;100.00;102079.06;5007806;28;20575;-71
2021/12/22 08:51:22;;;;;;;83.50;39.97;;;;;;;-3.22;100.00;102068.09;4993401;28;20661;-72
2021/12/22 08:53:53;;;;;;;77.60;39.93;;;;;;;-3.19;100.00;102075.72;4993181;28;20037;-71
2021/12/22 08:56:19;;;;;;;84.83;40.33;;;;;;;-3.13;100.00;102080.47;4986564;28;20261;-73
2021/12/22 08:58:44;;;;;;;75.87;39.47;;;;;;;-3.11;100.00;102075.91;4992901;28;20025;-71
2021/12/22 09:01:10;;;;;;;75.90;39.30;;;;;;;-3.11;100.00;102075.91;4991576;28;20036;-71
2021/12/22 09:03:35;;;;;;;78.70;38.10;;;;;;;-3.09;100.00;102072.38;4979156;28;20038;-72
2021/12/22 09:06:01;;;;;;;73.90;37.97;;;;;;;-3.00;100.00;102080.31;4980678;28;20045;-70
2021/12/22 09:08:30;;;;;;;77.40;39.07;;;;;;;-2.88;100.00;102084.53;4993350;28;20267;-71
2021/12/22 09:10:58;;;;;;;66.40;35.90;;;;;;;-2.75;100.00;102071.22;4991844;28;21912;-71
2021/12/22 09:13:24;;;;;;;69.70;37.90;;;;;;;-2.65;100.00;102079.19;4986709;28;20100;-71
2021/12/22 09:15:49;;;;;;;72.13;36.37;;;;;;;-2.62;100.00;102068.41;4990856;28;20038;-71
2021/12/22 09:18:18;;;;;;;66.80;35.70;;;;;;;-2.60;100.00;102072.59;4984751;28;20044;-71
2021/12/22 09:20:43;;;;;;;68.93;35.57;;;;;;;-2.56;100.00;102066.09;4992697;28;20037;-73
2021/12/22 09:23:11;;;;;;;74.30;35.00;;;;;;;-2.63;100.00;102070.19;4993807;28;20061;-73
2021/12/22 09:25:39;;;;;;;65.73;35.53;;;;;;;-2.63;100.00;102053.59;4993318;28;20099;-72
2021/12/22 09:28:06;;;;;;;76.07;36.70;;;;;;;-2.54;100.00;102079.09;4992262;28;20058;-71
2021/12/22 09:30:35;;;;;;;74.47;36.40;;;;;;;-2.53;100.00;102078.13;4992387;28;20026;-71
2021/12/22 09:33:04;;;;;;;73.90;36.87;;;;;;;-2.51;100.00;102078.03;5006876;28;20128;-71
2021/12/22 09:35:30;;;;;;;69.50;36.00;;;;;;;-2.50;100.00;102069.19;4993364;28;21129;-72
2021/12/22 09:37:55;;;;;;;74.83;37.20;;;;;;;-2.46;100.00;102073.19;5006895;28;20646;-71
2021/12/22 09:40:23;;;;;;;70.87;36.87;;;;;;;-2.47;100.00;102072.38;4991009;28;20118;-71
2021/12/22 09:42:49;;;;;;;71.53;37.63;;;;;;;-2.45;100.00;102073.06;4990363;28;20041;-71
2021/12/22 09:45:16;;;;;;;67.80;38.13;;;;;;;-2.41;100.00;102068.41;4991012;28;20132;-71
2021/12/22 09:48:03;;;;;;;68.27;38.23;;;;;;;-2.33;100.00;102065.94;4992828;28;20034;-71
2021/12/22 09:50:44;;;;;;;73.30;38.20;;;;;;;-2.28;100.00;102058.50;4990968;28;20044;-70
2021/12/22 09:53:10;;;;;;;70.30;36.57;;;;;;;-2.19;100.00;102062.97;4991827;28;20064;-71
2021/12/22 09:55:35;;;;;;;67.40;37.00;;;;;;;-2.14;100.00;102068.66;4982974;28;20042;-71
2021/12/22 09:58:04;;;;;;;80.30;37.33;;;;;;;-2.17;100.00;102060.22;4991963;28;20049;-72
2021/12/22 10:00:34;;;;;;;71.53;37.80;;;;;;;-2.07;100.00;102072.44;5005550;28;20040;-71
2021/12/22 10:03:01;;;;;;;79.57;38.97;;;;;;;-2.05;100.00;102078.38;4991500;28;20077;-73
2021/12/22 10:05:26;;;;;;;88.27;40.97;;;;;;;-2.02;100.00;102059.72;4991597;28;20105;-72
2021/12/22 10:08:13;;;;;;;77.83;40.80;;;;;;;-1.92;100.00;102065.00;4992765;28;20045;-72
2021/12/22 10:11:05;;;;;;;72.57;35.60;;;;;;;-1.92;100.00;102062.38;4991467;28;20034;-72
2021/12/22 10:13:33;;;;;;;66.68;35.00;;;;;;;-1.92;100.00;102065.00;4991685;28;20058;-71
2021/12/22 10:16:00;;;;;;;71.10;36.83;;;;;;;-1.82;100.00;102072.94;5006491;28;20057;-72
2021/12/22 10:18:28;;;;;;;67.55;36.38;;;;;;;-1.79;100.00;102067.41;4989366;28;20169;-72
2021/12/22 10:21:12;;;;;;;69.75;36.15;;;;;;;-1.74;100.00;102073.09;4998332;28;20030;-72
2021/12/22 10:23:55;;;;;;;72.47;37.60;;;;;;;-1.72;100.00;102065.88;4990832;28;20500;-71
2021/12/22 10:26:26;;;;;;;70.53;35.60;;;;;;;-1.69;100.00;102063.00;5006565;28;20601;-72
2021/12/22 10:28:57;;;;;;;62.80;35.83;;;;;;;-1.60;100.00;102067.47;5006055;28;20267;-72
2021/12/22 10:31:35;;;;;;;64.20;35.73;;;;;;;-1.61;100.00;102065.78;4990673;28;20104;-72
2021/12/22 10:34:09;;;;;;;61.30;33.47;;;;;;;-1.62;100.00;102056.25;4992001;28;20042;-72
2021/12/22 10:36:46;;;;;;;63.63;35.75;;;;;;;-1.52;100.00;102061.53;4993019;28;20177;-70
2021/12/22 10:39:22;;;;;;;70.30;37.70;;;;;;;-1.46;100.00;102048.66;4984744;28;20033;-70
2021/12/22 10:41:48;;;;;;;72.15;37.13;;;;;;;-1.45;100.00;102046.84;4991422;28;20034;-71
2021/12/22 10:44:14;;;;;;;63.13;38.75;;;;;;;-1.33;100.00;102055.44;5006765;28;20033;-70
2021/12/22 10:46:40;;;;;;;64.85;35.28;;;;;;;-1.29;100.00;102046.31;4990893;28;20587;-71
2021/12/22 10:49:14;;;;;;;70.57;36.55;;;;;;;-1.25;100.00;102047.69;4991736;28;20033;-72
2021/12/22 10:51:47;;;;;;;67.88;37.70;;;;;;;-1.17;100.00;102039.94;5004957;28;20501;-71
2021/12/22 10:54:17;;;;;;;60.55;33.80;;;;;;;-1.14;100.00;102035.22;4988657;28;20053;-71
2021/12/22 10:56:47;;;;;;;70.57;39.05;;;;;;;-1.04;100.00;102034.38;4996376;28;20248;-73
2021/12/22 10:59:15;;;;;;;73.18;41.42;;;;;;;-1.04;100.00;102022.06;4979598;28;20246;-70
2021/12/22 11:01:58;;;;;;;68.13;37.60;;;;;;;-0.94;100.00;102030.75;4996035;28;20497;-73
2021/12/22 11:04:31;;;;;;;68.38;38.38;;;;;;;-0.90;100.00;102026.03;4995263;28;20722;-70
2021/12/22 11:07:07;;;;;;;74.60;39.28;;;;;;;-0.86;100.00;102023.00;5005677;28;20034;-70
2021/12/22 11:09:36;;;;;;;77.07;42.33;;;;;;;-0.77;100.00;102025.75;5003433;28;20042;-72
2021/12/22 11:12:03;;;;;;;84.07;40.95;;;;;;;-0.66;100.00;102029.03;4989884;28;20079;-72
2021/12/22 11:14:33;;;;;;;82.30;40.67;;;;;;;-0.57;100.00;102016.84;5005644;28;20063;-72
2021/12/22 11:17:05;;;;;;;81.38;39.42;;;;;;;-0.48;100.00;102010.69;4989316;28;20647;-71
2021/12/22 11:19:36;;;;;;;;;;;;;;;-0.46;100.00;102015.81;4990667;28;20041;-71
2021/12/22 11:24:37;;;;;;;95.65;38.92;;;;;;;-0.37;100.00;102002.59;4999167;28;20060;-71
2021/12/22 11:27:06;;;;;;;100.97;43.95;;;;;;;-0.30;100.00;102003.69;4992127;28;20316;-71
2021/12/22 11:29:33;;;;;;;91.80;38.40;;;;;;;-0.18;100.00;102003.50;4990414;28;20040;-71
2021/12/22 11:32:02;;;;;;;87.03;39.13;;;;;;;-0.11;100.00;102007.22;4990970;28;20056;-71